Time;durP1;ratioP1;P1;durP2;ratioP2;P2;SDS_P1;SDS_P2;PMS_P1;PMS_P2;Temp;Humidity;BMP_temperature;BMP_pressure;BME280_temperature;BME280_humidity;BME280_pressure;Samples;Min_cycle;Max_cycle;Signal;HPM_P1;HPM_P2
2024/02/13 00:01:18;;;;;;;10.23;2.97;;;;;;;9.58;75.29;99263.01;123746;1105;104287;-83
2024/02/13 00:03:49;;;;;;;12.23;3.07;;;;;;;9.57;75.12;99261.27;123694;1105;104295;-83
2024/02/13 00:06:21;;;;;;;12.97;3.33;;;;;;;9.55;75.36;99276.04;123567;1103;104265;-82
2024/02/13 00:08:52;;;;;;;11.93;3.20;;;;;;;9.52;75.38;99273.36;123615;1105;104283;-83
2024/02/13 00:11:24;;;;;;;11.83;3.93;;;;;;;9.51;74.98;99276.85;123604;1102;110855;-83
2024/02/13 00:13:56;;;;;;;15.37;4.50;;;;;;;9.52;75.14;99274.27;123575;1102;104255;-82
2024/02/13 00:16:28;;;;;;;9.80;2.90;;;;;;;9.53;75.06;99275.14;123536;1102;104277;-82
2024/02/13 00:19:01;;;;;;;10.60;3.30;;;;;;;9.53;75.39;99277.76;123490;1105;104268;-83
2024/02/13 00:21:33;;;;;;;15.90;3.43;;;;;;;9.53;75.31;99275.14;123481;1102;104312;-84
2024/02/13 00:24:05;;;;;;;9.25;2.90;;;;;;;9.51;75.53;99282.96;123597;1105;104680;-83
2024/02/13 00:26:38;;;;;;;9.97;3.03;;;;;;;9.49;75.46;99281.16;123603;1102;104280;-83
2024/02/13 00:29:09;;;;;;;14.90;3.50;;;;;;;9.46;75.59;99278.50;123632;1102;104316;-84
2024/02/13 00:31:41;;;;;;;9.07;3.23;;;;;;;9.46;74.81;99278.50;123435;1105;107501;-84
2024/02/13 00:34:12;;;;;;;12.10;3.10;;;;;;;9.47;75.32;99268.06;123851;1105;104203;-84
2024/02/13 00:36:44;;;;;;;8.67;3.20;;;;;;;9.49;75.64;99266.34;123486;1105;104829;-84
2024/02/13 00:39:16;;;;;;;18.50;3.23;;;;;;;9.50;74.92;99286.42;123387;1105;104254;-83
2024/02/13 00:41:51;;;;;;;14.20;3.13;;;;;;;9.52;75.49;99281.22;123287;1105;104421;-83
2024/02/13 00:44:22;;;;;;;8.27;3.07;;;;;;;9.49;75.51;99287.30;123514;1105;104351;-81
2024/02/13 00:46:56;;;;;;;13.93;3.03;;;;;;;9.48;75.39;99282.03;123341;1105;104331;-83
2024/02/13 00:49:28;;;;;;;18.45;3.92;;;;;;;9.45;75.39;99277.59;123410;1102;104268;-83
2024/02/13 00:51:59;;;;;;;15.87;3.47;;;;;;;9.44;75.19;99281.09;123393;1102;104287;-83
2024/02/13 00:54:30;;;;;;;12.07;3.03;;;;;;;9.41;75.41;99278.41;123320;1105;104386;-83
2024/02/13 00:57:02;;;;;;;12.03;3.67;;;;;;;9.43;75.56;99278.44;123289;1105;104373;-83
2024/02/13 00:59:34;;;;;;;11.53;3.50;;;;;;;9.41;75.06;99275.79;123356;1105;104277;-82
2024/02/13 01:02:05;;;;;;;17.20;4.20;;;;;;;9.41;75.00;99274.88;123256;1102;104297;-83
2024/02/13 01:04:36;;;;;;;10.87;3.43;;;;;;;9.38;75.51;99270.48;123341;1102;104629;-84
2024/02/13 01:07:08;;;;;;;12.80;3.80;;;;;;;9.34;74.86;99273.88;123534;1102;104293;-85
2024/02/13 01:09:39;;;;;;;13.00;3.47;;;;;;;9.29;75.44;99284.25;123326;1102;104354;-84
2024/02/13 01:12:10;;;;;;;8.35;3.55;;;;;;;9.29;75.38;99279.02;123356;1105;104277;-85
2024/02/13 01:14:41;;;;;;;13.73;4.30;;;;;;;9.26;75.61;99278.95;123869;1103;104300;-86
2024/02/13 01:17:13;;;;;;;17.73;4.20;;;;;;;9.24;75.55;99267.58;123835;1105;104281;-83
2024/02/13 01:19:47;;;;;;;12.97;4.13;;;;;;;9.19;75.64;99277.05;123497;1105;104466;-85
2024/02/13 01:22:18;;;;;;;9.63;3.20;;;;;;;9.15;75.61;99267.38;123383;1105;104348;-84
2024/02/13 01:24:49;;;;;;;9.77;3.70;;;;;;;9.10;75.31;99264.66;123627;1105;104251;-82
2024/02/13 01:27:20;;;;;;;11.50;3.67;;;;;;;9.04;75.62;99263.63;123576;1105;104414;-84
2024/02/13 01:29:52;;;;;;;9.57;2.93;;;;;;;9.00;75.22;99257.45;123511;1104;104313;-84
2024/02/13 01:32:28;;;;;;;13.97;3.97;;;;;;;8.95;75.55;99259.96;123659;1104;104239;-85
2024/02/13 01:34:59;;;;;;;17.07;3.80;;;;;;;8.92;75.44;99259.02;123497;1105;104826;-84
2024/02/13 01:37:31;;;;;;;15.73;3.80;;;;;;;8.87;75.56;99255.42;123461;1105;104370;-83
2024/02/13 01:40:05;;;;;;;20.03;5.43;;;;;;;8.83;76.09;99259.69;123523;1105;104280;-84
2024/02/13 01:42:37;;;;;;;;;;;;;;;8.80;76.61;99272.69;123489;1105;104271;-82
2024/02/13 01:45:12;;;;;;;18.57;4.23;;;;;;;8.76;75.43;99273.49;123507;1105;104639;-86
2024/02/13 01:47:44;;;;;;;17.95;4.70;;;;;;;8.74;76.09;99269.93;123445;1105;104322;-84
2024/02/13 01:50:20;;;;;;;16.13;4.20;;;;;;;8.72;76.11;99267.28;123430;1105;104377;-83
2024/02/13 01:52:54;;;;;;;14.03;3.97;;;;;;;8.71;75.61;99270.77;123389;1105;104367;-84
2024/02/13 01:55:29;;;;;;;15.13;4.78;;;;;;;8.70;76.31;99257.66;123642;1105;104268;-84
2024/02/13 01:58:04;;;;;;;17.13;4.00;;;;;;;8.70;75.78;99248.06;123424;1105;104300;-84
2024/02/13 02:00:36;;;;;;;14.07;3.60;;;;;;;8.70;76.39;99260.27;123567;1105;104457;-82
2024/02/13 02:03:08;;;;;;;13.57;4.10;;;;;;;8.69;76.57;99271.56;123483;1105;104309;-83
2024/02/13 02:05:40;;;;;;;15.13;3.63;;;;;;;8.65;76.67;99270.63;123601;1105;104347;-84
2024/02/13 02:08:14;;;;;;;14.97;3.93;;;;;;;8.62;76.55;99257.47;123447;1105;104191;-83
2024/02/13 02:10:45;;;;;;;14.70;4.07;;;;;;;8.60;76.36;99260.05;123311;1105;104290;-83
2024/02/13 02:13:16;;;;;;;13.20;3.50;;;;;;;8.57;76.58;99259.98;123761;1105;104239;-85
2024/02/13 02:15:48;;;;;;;16.37;3.60;;;;;;;8.54;76.54;99252.06;123426;1105;104456;-83
2024/02/13 02:18:19;;;;;;;16.63;3.90;;;;;;;8.50;76.70;99250.20;123502;1105;104290;-84
2024/02/13 02:20:50;;;;;;;15.83;3.43;;;;;;;8.48;77.47;99262.37;123632;1105;104198;-83
2024/02/13 02:23:22;;;;;;;16.20;3.73;;;;;;;8.46;76.96;99264.04;123270;1105;104297;-83
2024/02/13 02:25:53;;;;;;;15.60;3.70;;;;;;;8.45;77.12;99276.23;123269;1105;104357;-83
2024/02/13 02:28:25;;;;;;;13.30;3.37;;;;;;;8.47;76.54;99278.02;123352;1105;104271;-84
2024/02/13 02:30:57;;;;;;;14.07;3.20;;;;;;;8.45;77.00;99278.85;123370;1102;104235;-82
2024/02/13 02:33:28;;;;;;;11.13;3.33;;;;;;;8.45;77.35;99278.85;123382;1105;104235;-84
2024/02/13 02:36:00;;;;;;;15.50;3.70;;;;;;;8.47;77.07;99280.63;123312;1102;104287;-83
2024/02/13 02:38:32;;;;;;;12.37;3.67;;;;;;;8.47;76.71;99284.12;123332;1105;104361;-83
2024/02/13 02:41:03;;;;;;;11.33;3.33;;;;;;;8.49;77.00;99285.03;123262;1105;104312;-85
2024/02/13 02:43:35;;;;;;;9.73;3.10;;;;;;;8.48;76.75;99282.38;123712;1105;104293;-85
2024/02/13 02:46:06;;;;;;;13.63;3.50;;;;;;;8.46;77.12;99284.95;123485;1105;104245;-85
2024/02/13 02:48:38;;;;;;;12.67;3.80;;;;;;;8.47;76.73;99281.50;123340;1105;104337;-84
2024/02/13 02:51:09;;;;;;;15.93;4.37;;;;;;;8.45;77.32;99275.37;123402;1105;104395;-83
2024/02/13 02:53:40;;;;;;;17.13;3.80;;;;;;;8.44;76.86;99281.43;123258;1105;104293;-83
2024/02/13 02:56:15;;;;;;;12.60;3.77;;;;;;;8.42;77.25;99276.13;123394;1104;104264;-81
2024/02/13 02:58:46;;;;;;;14.07;3.93;;;;;;;8.40;77.53;99279.58;123590;1105;104290;-84
2024/02/13 03:01:18;;;;;;;11.45;4.25;;;;;;;8.40;77.26;99287.42;123398;1105;104298;-84
2024/02/13 03:03:50;;;;;;;14.57;4.30;;;;;;;8.41;77.80;99278.70;123860;1102;104440;-85
2024/02/13 03:06:21;;;;;;;16.53;4.20;;;;;;;8.40;77.59;99274.34;123251;1105;104701;-83
2024/02/13 03:08:52;;;;;;;12.07;3.87;;;;;;;8.38;76.97;99276.92;123209;1105;104332;-83
2024/02/13 03:11:24;;;;;;;12.67;3.60;;;;;;;8.40;77.28;99274.34;123603;1105;104229;-83
2024/02/13 03:13:55;;;;;;;12.10;3.70;;;;;;;8.40;77.77;99271.73;123575;1102;104387;-83
2024/02/13 03:16:29;;;;;;;13.90;4.30;;;;;;;8.39;77.73;99273.44;123688;1102;104387;-83
2024/02/13 03:19:00;;;;;;;14.03;4.17;;;;;;;8.36;77.71;99270.75;123252;1102;104395;-82
2024/02/13 03:21:32;;;;;;;14.55;3.40;;;;;;;8.38;77.35;99276.02;123313;1105;104214;-83
2024/02/13 03:24:03;;;;;;;17.10;3.70;;;;;;;8.40;77.92;99272.61;123388;1104;104236;-82
2024/02/13 03:26:35;;;;;;;11.37;4.00;;;;;;;8.41;77.19;99281.32;123480;1105;104271;-83
2024/02/13 03:29:07;;;;;;;17.60;4.27;;;;;;;8.38;77.28;99283.86;123177;1105;104358;-83
2024/02/13 03:31:39;;;;;;;17.00;4.70;;;;;;;8.35;77.94;99294.23;123329;1104;104353;-83
2024/02/13 03:34:10;;;;;;;13.40;4.10;;;;;;;8.33;77.85;99294.20;123527;1105;104351;-83
2024/02/13 03:36:42;;;;;;;19.45;4.80;;;;;;;8.34;78.05;99285.52;123563;1102;104284;-84
2024/02/13 03:39:15;;;;;;;19.97;4.60;;;;;;;8.37;77.71;99289.95;123619;1105;104679;-83
2024/02/13 03:41:47;;;;;;;15.97;4.70;;;;;;;8.38;78.04;99289.99;123428;1105;104296;-84
2024/02/13 03:44:19;;;;;;;22.73;4.90;;;;;;;8.40;78.05;99290.91;123644;1105;104682;-83
2024/02/13 03:46:50;;;;;;;17.35;4.50;;;;;;;8.37;77.86;99282.98;123563;1102;104316;-83
2024/02/13 03:49:22;;;;;;;14.33;3.90;;;;;;;8.34;77.76;99285.52;123599;1105;104441;-84
2024/02/13 03:51:53;;;;;;;13.90;4.00;;;;;;;8.35;77.81;99297.75;123565;1102;104323;-83
2024/02/13 03:54:24;;;;;;;19.47;5.20;;;;;;;8.34;77.98;99295.98;123437;1102;104316;-83
2024/02/13 03:56:56;;;;;;;14.63;3.73;;;;;;;8.33;77.74;99306.39;123201;1105;104348;-83
2024/02/13 03:59:29;;;;;;;17.63;4.30;;;;;;;8.31;77.94;99305.48;123332;1105;104319;-83
2024/02/13 04:02:02;;;;;;;12.80;3.95;;;;;;;8.28;78.29;99301.92;123670;1103;104322;-84
2024/02/13 04:04:33;;;;;;;13.87;3.60;;;;;;;8.29;77.84;99310.67;123601;1102;104323;-84
2024/02/13 04:07:05;;;;;;;18.30;3.60;;;;;;;8.30;78.05;99303.70;123557;1102;104403;-83
2024/02/13 04:09:37;;;;;;;14.17;3.80;;;;;;;8.32;78.14;99307.22;123319;1102;104232;-84
2024/02/13 04:12:10;;;;;;;14.27;3.93;;;;;;;8.32;78.46;99313.36;123341;1102;104347;-84
2024/02/13 04:14:42;;;;;;;13.57;3.70;;;;;;;8.35;78.10;99312.53;123327;1104;104235;-83
2024/02/13 04:17:13;;;;;;;12.90;4.20;;;;;;;8.34;78.36;99321.24;123450;1105;104323;-84
2024/02/13 04:19:44;;;;;;;18.37;4.33;;;;;;;8.30;77.81;99319.38;123581;1105;104395;-84
2024/02/13 04:22:16;;;;;;;13.87;3.97;;;;;;;8.30;78.47;99316.77;123332;1105;104412;-84
2024/02/13 04:24:47;;;;;;;17.23;4.10;;;;;;;8.28;78.19;99322.83;123319;1102;104323;-84
2024/02/13 04:27:19;;;;;;;17.63;5.27;;;;;;;8.28;78.46;99327.18;123229;1103;104270;-83
2024/02/13 04:29:50;;;;;;;18.67;5.53;;;;;;;8.28;78.05;99332.41;123493;1102;104667;-82
2024/02/13 04:32:21;;;;;;;19.90;5.90;;;;;;;8.30;78.82;99338.55;123238;1105;104328;-83
2024/02/13 04:34:52;;;;;;;16.40;5.00;;;;;;;8.31;78.34;99331.61;123351;1105;104366;-83
2024/02/13 04:37:24;;;;;;;17.10;5.10;;;;;;;8.27;78.84;99336.77;123463;1105;104322;-84
2024/02/13 04:39:55;;;;;;;18.80;5.75;;;;;;;8.26;78.55;99340.20;123370;1105;104367;-82
2024/02/13 04:42:34;;;;;;;22.80;4.80;;;;;;;8.20;78.84;99350.50;123390;1104;104298;-82
2024/02/13 04:45:06;;;;;;;20.80;5.73;;;;;;;8.17;78.17;99355.64;123348;1102;104402;-83
2024/02/13 04:47:38;;;;;;;20.73;5.23;;;;;;;8.19;78.53;99363.52;123223;1105;104735;-83
2024/02/13 04:50:10;;;;;;;17.13;4.90;;;;;;;8.20;78.62;99363.56;123292;1105;104367;-85
2024/02/13 04:52:43;;;;;;;12.87;4.93;;;;;;;8.21;78.63;99362.73;123357;1105;104469;-83
2024/02/13 04:55:14;;;;;;;17.60;5.27;;;;;;;8.20;78.63;99360.08;123385;1105;104300;-83
2024/02/13 04:57:46;;;;;;;16.50;5.70;;;;;;;8.21;78.81;99365.34;123409;1105;104188;-83
2024/02/13 05:00:24;;;;;;;18.13;4.70;;;;;;;8.20;78.69;99367.91;123322;1105;104296;-84
2024/02/13 05:03:03;;;;;;;15.40;4.80;;;;;;;8.18;79.08;99364.36;123429;1105;104394;-84
2024/02/13 05:08:23;;;;;;;14.00;4.10;;;;;;;8.18;79.24;99375.72;123240;1103;104204;-82
2024/02/13 05:10:54;;;;;;;19.37;4.83;;;;;;;8.20;78.96;99374.02;123347;1105;104392;-82
2024/02/13 05:13:26;;;;;;;16.13;5.07;;;;;;;8.19;79.16;99377.46;123288;1105;104261;-84
2024/02/13 05:15:58;;;;;;;17.13;4.90;;;;;;;8.16;79.16;99381.73;123574;1105;104376;-82
2024/02/13 05:18:30;;;;;;;19.30;5.27;;;;;;;8.16;79.22;99379.98;123348;1105;104262;-82
2024/02/13 05:21:03;;;;;;;18.00;5.30;;;;;;;8.13;78.81;99392.97;123614;1105;104230;-82
2024/02/13 05:23:34;;;;;;;16.93;5.00;;;;;;;8.14;78.93;99397.36;123452;1105;104399;-82
2024/02/13 05:26:07;;;;;;;16.93;5.20;;;;;;;8.13;78.90;99397.32;123608;1105;104262;-82
2024/02/13 05:28:38;;;;;;;14.80;5.20;;;;;;;8.18;79.16;99406.16;123771;1105;104344;-82
2024/02/13 05:31:10;;;;;;;18.37;5.33;;;;;;;8.17;79.16;99405.30;123492;1105;104232;-82
2024/02/13 05:33:42;;;;;;;15.87;4.80;;;;;;;8.18;79.44;99404.46;123549;1105;104328;-82
2024/02/13 05:36:15;;;;;;;16.70;5.30;;;;;;;8.19;78.72;99405.33;123873;1104;104380;-83
2024/02/13 05:38:47;;;;;;;20.70;5.60;;;;;;;8.20;79.45;99412.34;123677;1105;104880;-82
2024/02/13 05:41:19;;;;;;;22.03;5.73;;;;;;;8.24;79.28;99420.31;123570;1105;104300;-83
2024/02/13 05:43:51;;;;;;;17.50;5.93;;;;;;;8.25;78.81;99419.45;123556;1105;104188;-83
2024/02/13 05:46:24;;;;;;;17.17;5.87;;;;;;;8.27;79.33;99416.88;123528;1105;104396;-82
2024/02/13 05:48:59;;;;;;;18.03;5.77;;;;;;;8.32;79.33;99417.91;123521;1105;104373;-83
2024/02/13 05:51:30;;;;;;;16.43;4.80;;;;;;;8.35;79.14;99417.08;123525;1105;104261;-83
2024/02/13 05:54:04;;;;;;;15.47;4.97;;;;;;;8.38;79.53;99422.40;124037;1106;104348;-84
2024/02/13 05:56:36;;;;;;;14.57;4.83;;;;;;;8.44;79.62;99422.59;123910;1105;102525;-83
2024/02/13 05:59:09;;;;;;;16.17;4.80;;;;;;;8.48;79.21;99421.84;123958;1105;104258;-83
2024/02/13 06:01:41;;;;;;;23.37;5.57;;;;;;;8.55;79.25;99426.38;123672;1102;104307;-84
2024/02/13 06:04:12;;;;;;;14.07;5.53;;;;;;;8.59;80.12;99425.62;123736;1105;102182;-83
2024/02/13 06:06:46;;;;;;;18.33;5.10;;;;;;;8.66;80.05;99423.17;123703;1106;102716;-82
2024/02/13 06:09:21;;;;;;;18.53;6.10;;;;;;;8.73;79.65;99420.76;123566;1105;104290;-83
2024/02/13 06:11:52;;;;;;;20.00;6.33;;;;;;;8.79;79.63;99426.14;123703;1105;104383;-84
2024/02/13 06:14:24;;;;;;;18.97;6.00;;;;;;;8.87;79.69;99431.58;123780;1105;104293;-82
2024/02/13 06:16:57;;;;;;;18.00;5.53;;;;;;;8.91;80.26;99428.20;124341;1105;104258;-82
2024/02/13 06:19:28;;;;;;;22.10;6.07;;;;;;;9.00;79.65;99437.99;123799;1105;104298;-82
2024/02/13 06:22:00;;;;;;;18.37;5.30;;;;;;;9.07;80.22;99434.69;124043;1105;103354;-83
2024/02/13 06:24:31;;;;;;;18.33;6.07;;;;;;;9.12;79.67;99430.45;124338;1105;104326;-83
2024/02/13 06:27:08;;;;;;;18.83;5.80;;;;;;;9.21;80.28;99424.56;124298;1105;104191;-82
2024/02/13 06:29:40;;;;;;;22.20;5.50;;;;;;;9.28;80.07;99428.20;124109;1105;104332;-82
2024/02/13 06:32:12;;;;;;;17.27;5.87;;;;;;;9.34;80.30;99423.98;124020;1105;104255;-83
2024/02/13 06:34:43;;;;;;;19.63;5.87;;;;;;;9.42;79.74;99418.05;124408;1105;104267;-83
2024/02/13 06:37:15;;;;;;;20.55;6.35;;;;;;;9.49;79.66;99426.08;124045;1106;104304;-83
2024/02/13 06:39:47;;;;;;;20.30;5.50;;;;;;;9.59;80.06;99424.55;124124;1105;104275;-82
2024/02/13 06:42:21;;;;;;;20.20;6.33;;;;;;;9.67;80.40;99419.48;124089;1105;104280;-82
2024/02/13 06:44:53;;;;;;;22.87;6.47;;;;;;;9.73;79.71;99414.37;123990;1105;104203;-82
2024/02/13 06:47:27;;;;;;;21.47;6.50;;;;;;;9.82;80.43;99430.30;124141;1102;104367;-81
2024/02/13 06:50:13;;;;;;;;;;;;;;;;;;;;;
2024/02/13 06:52:45;;;;;;;19.27;6.40;;;;;;;9.90;79.33;99433.95;125110;1105;102730;-82
2024/02/13 06:55:16;;;;;;;20.63;6.43;;;;;;;9.89;79.84;99432.20;124710;1105;104251;-82
2024/02/13 06:57:49;;;;;;;19.45;6.20;;;;;;;9.94;79.54;99434.92;124936;1102;104234;-82
2024/02/13 07:00:24;;;;;;;21.03;6.80;;;;;;;9.99;79.86;99428.03;125141;1102;103267;-83
2024/02/13 07:02:55;;;;;;;18.63;6.50;;;;;;;10.06;79.70;99435.15;125128;1102;104242;-82
2024/02/13 07:05:26;;;;;;;17.73;6.20;;;;;;;10.14;79.63;99437.05;124327;1105;104153;-82
2024/02/13 07:07:58;;;;;;;18.47;5.97;;;;;;;10.20;79.87;99439.80;124237;1102;103576;-82
2024/02/13 07:10:33;;;;;;;21.63;6.33;;;;;;;10.23;79.35;99450.35;124146;1105;104235;-82
2024/02/13 07:13:05;;;;;;;22.27;6.50;;;;;;;10.20;79.44;99448.55;124453;1105;104644;-82
2024/02/13 07:15:36;;;;;;;18.10;6.30;;;;;;;10.22;79.39;99451.20;124387;1105;102482;-83
2024/02/13 07:18:08;;;;;;;19.17;6.13;;;;;;;10.29;79.60;99449.61;124430;1103;104444;-82
2024/02/13 07:20:39;;;;;;;24.40;6.33;;;;;;;10.37;79.71;99451.54;124815;1104;104149;-82
2024/02/13 07:23:11;;;;;;;18.45;5.83;;;;;;;10.46;79.90;99444.73;116262;1102;10001210;-83
2024/02/13 07:25:49;;;;;;;22.00;5.90;;;;;;;10.57;79.55;99433.56;124390;1105;104332;-83
2024/02/13 07:28:20;;;;;;;23.97;5.80;;;;;;;10.67;79.85;99445.09;124269;1103;104227;-84
2024/02/13 07:30:51;;;;;;;21.87;6.50;;;;;;;10.72;79.18;99448.72;124292;1105;104300;-83
2024/02/13 07:33:28;;;;;;;21.63;6.33;;;;;;;10.81;79.25;99452.35;125005;1102;102248;-82
2024/02/13 07:36:02;;;;;;;20.33;6.37;;;;;;;10.90;79.71;99452.52;125674;1105;103026;-83
2024/02/13 07:38:34;;;;;;;21.93;6.22;;;;;;;10.94;79.02;99443.85;125047;1102;102631;-84
2024/02/13 07:41:08;;;;;;;20.03;5.17;;;;;;;10.96;79.17;99437.75;125002;1102;103701;-83
2024/02/13 07:43:42;;;;;;;20.23;6.00;;;;;;;11.04;78.91;99448.38;124962;1102;102084;-82
2024/02/13 07:46:17;;;;;;;22.93;7.33;;;;;;;11.15;79.16;99448.56;125041;1102;102082;-83
2024/02/13 07:48:51;;;;;;;19.33;6.13;;;;;;;11.29;79.27;99440.91;124953;1102;104274;-83
2024/02/13 07:51:24;;;;;;;;;;;;;;;11.38;78.82;99446.31;124526;1105;102478;-83
2024/02/13 07:53:57;;;;;;;18.90;5.53;;;;;;;11.46;78.85;99443.80;124455;1105;103732;-82
2024/02/13 07:56:29;;;;;;;21.77;6.00;;;;;;;11.50;78.85;99443.88;124365;1103;104261;-83
2024/02/13 07:59:01;;;;;;;15.20;5.67;;;;;;;11.60;78.78;99437.00;124442;1105;104365;-83
2024/02/13 08:01:33;;;;;;;16.25;5.25;;;;;;;11.66;78.63;99436.22;124326;1105;104179;-84
2024/02/13 08:04:05;;;;;;;20.43;5.13;;;;;;;11.73;78.66;99440.67;124425;1105;102204;-84
2024/02/13 08:06:50;;;;;;;17.07;5.40;;;;;;;11.75;78.39;99435.44;124325;1102;104179;-83
2024/02/13 08:09:26;;;;;;;16.90;5.30;;;;;;;11.83;78.40;99431.20;124977;1105;104363;-83
2024/02/13 08:11:57;;;;;;;24.97;4.93;;;;;;;11.85;77.95;99435.59;124982;1102;102705;-83
2024/02/13 08:14:32;;;;;;;19.13;5.57;;;;;;;11.89;78.43;99444.42;124268;1105;104332;-82
2024/02/13 08:17:17;;;;;;;17.23;5.40;;;;;;;11.93;78.11;99454.13;125145;1105;104270;-83
2024/02/13 08:19:51;;;;;;;19.50;5.10;;;;;;;11.94;77.73;99452.41;124298;1105;104248;-82
2024/02/13 08:22:27;;;;;;;18.00;5.67;;;;;;;11.99;77.73;99448.95;124405;1102;101990;-83
2024/02/13 08:25:01;;;;;;;16.70;5.20;;;;;;;11.99;77.56;99448.08;124348;1102;102403;-81
2024/02/13 08:27:35;;;;;;;21.63;5.70;;;;;;;11.99;77.15;99450.71;124335;1102;102115;-81
2024/02/13 08:30:10;;;;;;;20.45;6.17;;;;;;;12.02;77.41;99454.25;124097;1102;104264;-82
2024/02/13 08:32:44;;;;;;;17.77;5.20;;;;;;;12.06;77.10;99449.94;124587;1103;104239;-81
2024/02/13 08:35:18;;;;;;;17.17;5.50;;;;;;;12.09;77.27;99451.70;124218;1105;104283;-82
2024/02/13 08:37:50;;;;;;;17.67;6.10;;;;;;;12.09;76.75;99456.96;124262;1105;102221;-81
2024/02/13 08:40:21;;;;;;;17.97;5.97;;;;;;;12.11;76.64;99466.65;124222;1102;104293;-82
2024/02/13 08:42:56;;;;;;;22.90;5.67;;;;;;;12.13;76.11;99472.80;124153;1102;104174;-81
2024/02/13 08:45:30;;;;;;;17.33;5.33;;;;;;;12.17;76.31;99476.34;124193;1102;104236;-80
2024/02/13 08:48:01;;;;;;;18.43;5.20;;;;;;;12.26;76.60;99476.45;124120;1104;104251;-83
2024/02/13 08:50:32;;;;;;;14.07;5.07;;;;;;;12.33;75.54;99483.58;124284;1102;104313;-82
2024/02/13 08:53:06;;;;;;;16.63;4.80;;;;;;;12.37;75.82;99488.02;124311;1105;104220;-83
2024/02/13 08:55:39;;;;;;;15.80;5.25;;;;;;;12.45;76.06;99489.84;124252;1105;104172;-81
2024/02/13 08:58:12;;;;;;;12.90;4.53;;;;;;;12.47;75.41;99486.38;124199;1105;104261;-82
2024/02/13 09:00:46;;;;;;;17.32;5.42;;;;;;;12.52;75.69;99492.56;124080;1102;104450;-82
2024/02/13 09:03:20;;;;;;;16.47;4.80;;;;;;;12.59;75.36;99490.91;124213;1102;102055;-83
2024/02/13 09:05:53;;;;;;;21.00;6.30;;;;;;;12.65;76.07;99480.41;124078;1105;104225;-82
2024/02/13 09:08:24;;;;;;;29.43;5.90;;;;;;;12.74;75.53;99479.64;124221;1102;104188;-82
2024/02/13 09:11:09;;;;;;;19.70;5.27;;;;;;;12.83;75.70;99486.77;124833;1102;104261;-82
2024/02/13 09:13:45;;;;;;;17.87;5.20;;;;;;;12.89;75.56;99492.97;124181;1105;104258;-82
2024/02/13 09:16:17;;;;;;;16.90;4.50;;;;;;;12.94;75.09;99493.89;124913;1105;102294;-83
2024/02/13 09:18:48;;;;;;;23.67;5.10;;;;;;;12.92;74.66;99495.63;124748;1102;102015;-82
2024/02/13 09:21:21;;;;;;;18.27;4.80;;;;;;;12.91;74.27;99492.98;124823;1105;104296;-83
2024/02/13 09:23:54;;;;;;;17.35;5.45;;;;;;;12.93;74.40;99486.88;124932;1102;104261;-84
2024/02/13 09:26:28;;;;;;;18.73;5.30;;;;;;;12.95;74.48;99493.03;124958;1105;102346;-81
2024/02/13 09:29:18;;;;;;;19.12;5.65;;;;;;;12.98;74.62;99489.56;124900;1102;103206;-81
2024/02/13 09:32:24;;;;;;;23.20;5.20;;;;;;;13.05;74.28;99493.99;124959;1102;102612;-80
2024/02/13 09:34:58;;;;;;;19.53;5.60;;;;;;;13.09;74.62;99490.53;124874;1105;104309;-81
2024/02/13 09:37:48;;;;;;;21.30;5.90;;;;;;;13.13;74.12;99488.80;124912;1105;102751;-82
2024/02/13 09:40:29;;;;;;;21.87;6.07;;;;;;;13.17;73.79;99487.10;125096;1102;104188;-81
2024/02/13 09:43:03;;;;;;;19.37;5.97;;;;;;;13.17;73.59;99485.34;124295;1106;104370;-81
2024/02/13 09:45:39;;;;;;;18.37;5.40;;;;;;;13.18;73.67;99492.34;124162;1105;104111;-82
2024/02/13 09:48:20;;;;;;;17.73;5.50;;;;;;;13.17;74.01;99485.34;124088;1105;104345;-81
2024/02/13 09:50:53;;;;;;;19.50;5.90;;;;;;;13.21;73.39;99480.97;126534;1102;102282;-80
2024/02/13 09:53:31;;;;;;;18.83;5.70;;;;;;;13.24;73.45;99481.87;125029;1102;105353;-81
2024/02/13 09:56:03;;;;;;;19.40;5.53;;;;;;;13.27;73.38;99471.36;125147;1102;104182;-80
2024/02/13 09:58:35;;;;;;;18.63;5.10;;;;;;;13.33;73.15;99474.94;124305;1102;104248;-81
2024/02/13 10:01:11;;;;;;;21.47;5.53;;;;;;;13.35;72.86;99481.13;124284;1103;104645;-81
2024/02/13 10:03:47;;;;;;;14.00;5.20;;;;;;;13.40;73.19;99472.39;124406;1105;104381;-82
2024/02/13 10:06:19;;;;;;;22.47;5.40;;;;;;;13.47;73.48;99462.77;125245;1105;104172;-82
2024/02/13 10:08:54;;;;;;;21.43;5.20;;;;;;;13.49;72.80;99466.29;124883;1105;104735;-82
2024/02/13 10:11:34;;;;;;;18.43;5.17;;;;;;;13.59;73.71;99469.90;124294;1105;104316;-82
2024/02/13 10:14:19;;;;;;;16.20;4.30;;;;;;;13.64;72.79;99465.53;124198;1102;104182;-82
2024/02/13 10:16:56;;;;;;;17.53;5.60;;;;;;;13.67;72.75;99460.28;124527;1102;103129;-81
2024/02/13 10:19:32;;;;;;;17.00;4.90;;;;;;;13.73;72.79;99464.69;124388;1102;103285;-81
2024/02/13 10:22:17;;;;;;;16.83;4.87;;;;;;;13.73;72.07;99457.68;124442;1105;102107;-81
2024/02/13 10:24:47;;;;;;;;;;;;;;;13.74;71.31;99466.46;125163;1105;103089;-82
2024/02/13 10:27:23;;;;;;;16.73;4.77;;;;;;;13.74;72.04;99446.24;124434;1106;102489;-82
2024/02/13 10:30:00;;;;;;;21.17;5.63;;;;;;;13.78;72.90;99455.08;124433;1105;102510;-82
2024/02/13 10:32:43;;;;;;;17.83;5.83;;;;;;;13.79;72.63;99451.55;124388;1102;104240;-82
2024/02/13 10:35:19;;;;;;;20.77;6.00;;;;;;;13.77;72.45;99450.66;126059;1105;101991;-81
2024/02/13 10:37:52;;;;;;;;;;;;;;;13.75;71.43;99455.06;125397;1102;104239;-82
2024/02/13 10:40:26;;;;;;;18.23;5.60;;;;;;;13.74;71.72;99454.15;125743;1101;104248;-81
2024/02/13 10:42:59;;;;;;;17.25;5.78;;;;;;;13.74;71.41;99459.42;125317;1102;104280;-81
2024/02/13 10:45:33;;;;;;;18.13;5.40;;;;;;;13.72;72.07;99455.91;125282;1105;102155;-83
2024/02/13 10:48:18;;;;;;;19.80;6.03;;;;;;;13.75;71.58;99447.15;125221;1102;104220;-81
2024/02/13 10:50:53;;;;;;;17.20;5.50;;;;;;;13.78;71.42;99455.95;124944;1104;104183;-82
2024/02/13 10:53:31;;;;;;;21.83;5.97;;;;;;;13.78;71.98;99448.03;124466;1102;104408;-81
2024/02/13 10:56:10;;;;;;;19.60;6.30;;;;;;;13.84;72.16;99452.47;124497;1105;102995;-82
2024/02/13 10:58:44;;;;;;;21.30;6.93;;;;;;;13.87;72.00;99441.04;126006;1102;101858;-81
2024/02/13 11:01:21;;;;;;;23.83;6.20;;;;;;;13.87;71.97;99441.95;126259;1104;101349;-82
2024/02/13 11:03:59;;;;;;;22.47;6.57;;;;;;;13.88;71.14;99443.69;125939;1105;102273;-82
2024/02/13 11:06:46;;;;;;;20.17;6.40;;;;;;;13.89;71.33;99442.83;124398;1105;104176;-81
2024/02/13 11:09:21;;;;;;;20.50;6.00;;;;;;;13.88;71.93;99438.41;124473;1105;103096;-82
2024/02/13 11:11:55;;;;;;;22.10;6.67;;;;;;;13.88;70.93;99441.05;124375;1106;101955;-80
2024/02/13 11:14:32;;;;;;;20.60;6.53;;;;;;;13.89;71.14;99445.46;125244;1102;103581;-82
2024/02/13 11:17:10;;;;;;;22.13;7.08;;;;;;;13.89;71.12;99437.55;115815;1105;10001376;-82
2024/02/13 11:19:48;;;;;;;19.33;5.67;;;;;;;13.89;70.86;99441.95;124455;1102;104258;-82
2024/02/13 11:22:36;;;;;;;16.83;4.97;;;;;;;13.85;70.69;99438.39;124429;1105;104220;-81
2024/02/13 11:25:16;;;;;;;18.57;5.30;;;;;;;13.83;71.10;99445.42;124314;1105;104159;-82
2024/02/13 11:27:50;;;;;;;19.63;5.63;;;;;;;13.82;70.71;99443.66;126086;1105;101522;-82
2024/02/13 11:30:28;;;;;;;18.87;5.03;;;;;;;13.79;70.48;99436.63;125668;1102;104207;-82
2024/02/13 11:33:05;;;;;;;17.10;5.20;;;;;;;13.76;70.11;99438.34;124299;1104;104249;-81
2024/02/13 11:36:15;;;;;;;20.40;4.80;;;;;;;13.75;70.67;99439.23;125225;1103;104267;-82
2024/02/13 11:38:54;;;;;;;13.23;4.57;;;;;;;13.63;70.77;99422.48;124398;1105;102310;-81
2024/02/13 11:41:27;;;;;;;16.10;5.57;;;;;;;13.70;70.32;99436.57;124305;1105;104277;-82
2024/02/13 11:44:09;;;;;;;17.57;4.90;;;;;;;13.69;70.79;99436.56;124309;1103;104178;-82
2024/02/13 11:46:53;;;;;;;20.77;5.23;;;;;;;13.61;70.21;99440.02;124384;1105;104214;-81
2024/02/13 11:49:34;;;;;;;17.65;5.20;;;;;;;13.54;69.85;99435.60;124477;1102;102761;-83